Terminal Aerodrome Forecast
Issued by NWS

Home | Current Version | Previous Version | Text Only | Print | Product List | Glossary On
Versions: 1 2 3 4 5 6 7 8 9 10 11 12 13
000
FTUS45 KREV 082346
TAFCXP
TAF
KCXP 082346Z 0900/0924 18012G20KT P6SM SCT035 BKN060
     FM090300 21008KT P6SM SCT045 BKN060 BKN100
     FM092200 19011G18KT P6SM BKN045 BKN070 WS020/25045KT=

USA.gov is the U.S. government's official web portal to all federal, state and local government web resources and services.